createdAt,value
2018-07-05T00:00:00.924Z,97428.36
2018-07-05T00:00:32.530Z,97427.08
2018-07-05T00:01:04.123Z,97429.98
2018-07-05T00:01:35.720Z,97429.98
2018-07-05T00:02:07.292Z,97427.84
2018-07-05T00:02:38.873Z,97430.77
2018-07-05T00:03:10.473Z,97429.91
2018-07-05T00:03:42.081Z,97429.48
2018-07-05T00:04:13.684Z,97427.41
2018-07-05T00:04:45.289Z,97426.56
2018-07-05T00:05:16.934Z,97422.30
2018-07-05T00:05:48.501Z,97423.95
2018-07-05T00:06:20.092Z,97422.25
2018-07-05T00:06:51.701Z,97425.66
2018-07-05T00:07:23.285Z,97426.07
2018-07-05T00:07:54.880Z,97424.37
2018-07-05T00:08:26.569Z,97423.52
2018-07-05T00:08:58.149Z,97423.11
2018-07-05T00:09:29.726Z,97416.28
2018-07-05T00:10:01.307Z,97420.95
2018-07-05T00:10:32.924Z,97417.13
2018-07-05T00:11:04.506Z,97418.80
2018-07-05T00:11:36.116Z,97420.94
2018-07-05T00:12:07.706Z,97424.80
2018-07-05T00:12:39.285Z,97420.19
2018-07-05T00:13:10.871Z,97419.36
2018-07-05T00:13:42.453Z,97421.56
2018-07-05T00:14:14.021Z,97427.13
2018-07-05T00:14:45.592Z,97422.91
2018-07-05T00:15:17.201Z,97420.34
2018-07-05T00:15:48.781Z,97427.55
2018-07-05T00:16:20.358Z,97424.99
2018-07-05T00:16:51.958Z,97416.03
2018-07-05T00:17:23.569Z,97416.91
2018-07-05T00:17:55.164Z,97422.82
2018-07-05T00:18:26.764Z,97421.90
2018-07-05T00:18:58.350Z,97419.70
2018-07-05T00:19:29.930Z,97421.80
2018-07-05T00:20:01.533Z,97410.70
2018-07-05T00:20:33.155Z,97419.17
2018-07-05T00:21:04.737Z,97414.89
2018-07-05T00:21:36.317Z,97419.14
2018-07-05T00:22:07.889Z,97414.48
2018-07-05T00:22:39.493Z,97413.64
2018-07-05T00:23:11.064Z,97411.98
2018-07-05T00:23:42.636Z,97413.69
2018-07-05T00:24:14.241Z,97414.55
2018-07-05T00:24:45.825Z,97410.73
2018-07-05T00:25:17.397Z,97412.02
2018-07-05T00:25:49.026Z,97413.27
2018-07-05T00:26:20.615Z,97415.83
2018-07-05T00:26:52.221Z,97413.25
2018-07-05T00:27:23.795Z,97412.36
2018-07-05T00:27:55.394Z,97405.97
2018-07-05T00:28:26.985Z,97405.59
2018-07-05T00:28:58.551Z,97404.31
2018-07-05T00:29:30.143Z,97403.47
2018-07-05T00:30:01.760Z,97405.19
2018-07-05T00:30:33.370Z,97409.86
2018-07-05T00:31:04.953Z,97414.97
2018-07-05T00:31:36.543Z,97406.05
2018-07-05T00:32:08.139Z,97408.59
2018-07-05T00:32:39.736Z,97410.31
2018-07-05T00:33:11.345Z,97409.47
2018-07-05T00:33:42.949Z,97412.50
2018-07-05T00:34:14.553Z,97412.50
2018-07-05T00:34:46.152Z,97413.77
2018-07-05T00:35:17.752Z,97409.10
2018-07-05T00:35:49.348Z,97411.59
2018-07-05T00:36:20.950Z,97406.90
2018-07-05T00:36:52.553Z,97413.71
2018-07-05T00:37:24.137Z,97408.59
2018-07-05T00:37:55.737Z,97412.85
2018-07-05T00:38:27.317Z,97415.42
2018-07-05T00:38:58.907Z,97410.73
2018-07-05T00:39:30.493Z,97410.72
2018-07-05T00:40:02.070Z,97417.90
2018-07-05T00:40:33.649Z,97413.64
2018-07-05T00:41:05.279Z,97413.62
2018-07-05T00:41:36.953Z,97413.20
2018-07-05T00:42:08.562Z,97405.59
2018-07-05T00:42:40.132Z,97417.11
2018-07-05T00:43:11.737Z,97414.97
2018-07-05T00:43:43.318Z,97411.59
2018-07-05T00:44:14.907Z,97407.75
2018-07-05T00:44:46.486Z,97405.20
2018-07-05T00:45:18.062Z,97412.03
2018-07-05T00:45:49.638Z,97412.89
2018-07-05T00:46:21.265Z,97409.05
2018-07-05T00:46:52.877Z,97409.98
2018-07-05T00:47:24.448Z,97409.61
2018-07-05T00:47:56.049Z,97407.48
2018-07-05T00:48:27.653Z,97405.38
2018-07-05T00:48:59.264Z,97407.91
2018-07-05T00:49:30.858Z,97413.88
2018-07-05T00:50:02.434Z,97410.41
2018-07-05T00:50:34.014Z,97410.48
2018-07-05T00:51:05.642Z,97412.09
2018-07-05T00:51:37.249Z,97407.42
2018-07-05T00:52:08.826Z,97406.12
2018-07-05T00:52:40.415Z,97409.52
2018-07-05T00:53:12.025Z,97410.80
2018-07-05T00:53:43.614Z,97407.83
2018-07-05T00:54:15.214Z,97409.10
2018-07-05T00:54:46.796Z,97410.84
2018-07-05T00:55:18.397Z,97409.98
2018-07-05T00:55:49.993Z,97409.61
2018-07-05T00:56:21.612Z,97412.20
2018-07-05T00:56:53.200Z,97410.08
2018-07-05T00:57:24.792Z,97412.27
2018-07-05T00:57:56.400Z,97411.00
2018-07-05T00:58:27.972Z,97414.00
2018-07-05T00:58:59.553Z,97413.55
2018-07-05T00:59:31.144Z,97414.84
2018-07-05T01:00:02.753Z,97415.27
2018-07-05T01:00:34.359Z,97416.13
2018-07-05T01:01:05.970Z,97412.72
2018-07-05T01:01:37.577Z,97409.70
2018-07-05T01:02:09.231Z,97419.95
2018-07-05T01:02:40.808Z,97408.86
2018-07-05T01:03:12.388Z,97410.14
2018-07-05T01:03:43.993Z,97409.72
2018-07-05T01:04:15.598Z,97413.54
2018-07-05T01:04:47.201Z,97413.96
2018-07-05T01:05:18.775Z,97410.52
2018-07-05T01:05:50.368Z,97407.09
2018-07-05T01:06:21.968Z,97412.16
2018-07-05T01:06:53.560Z,97405.72
2018-07-05T01:07:25.166Z,97406.12
2018-07-05T01:07:56.745Z,97405.27
2018-07-05T01:08:28.325Z,97411.59
2018-07-05T01:08:59.925Z,97408.20
2018-07-05T01:09:31.524Z,97411.61
2018-07-05T01:10:03.124Z,97411.61
2018-07-05T01:10:34.699Z,97411.22
2018-07-05T01:11:06.278Z,97409.54
2018-07-05T01:11:37.867Z,97410.39
2018-07-05T01:12:09.474Z,97410.41
2018-07-05T01:12:41.085Z,97409.19
2018-07-05T01:13:12.684Z,97406.21
2018-07-05T01:13:44.289Z,97406.66
2018-07-05T01:14:15.864Z,97408.38
2018-07-05T01:14:47.464Z,97405.91
2018-07-05T01:15:19.050Z,97401.72
2018-07-05T01:15:50.633Z,97401.36
2018-07-05T01:16:22.240Z,97403.11
2018-07-05T01:16:53.841Z,97402.74
2018-07-05T01:17:25.425Z,97402.76
2018-07-05T01:17:57.014Z,97403.55
2018-07-05T01:18:28.656Z,97398.34
2018-07-05T01:19:00.257Z,97400.38
2018-07-05T01:19:31.862Z,97394.84
2018-07-05T01:20:03.440Z,97395.31
2018-07-05T01:20:35.036Z,97392.42
2018-07-05T01:21:06.642Z,97393.72
2018-07-05T01:21:38.281Z,97395.77
2018-07-05T01:22:09.881Z,97395.66
2018-07-05T01:22:41.465Z,97396.36
2018-07-05T01:23:13.065Z,97397.52
2018-07-05T01:23:44.777Z,97395.22
2018-07-05T01:24:16.357Z,97394.27
2018-07-05T01:24:47.961Z,97391.61
2018-07-05T01:25:19.560Z,97391.02
2018-07-05T01:25:51.146Z,97393.03
2018-07-05T01:26:22.730Z,97394.22
2018-07-05T01:26:54.328Z,97399.66
2018-07-05T01:27:25.906Z,97394.02
2018-07-05T01:27:57.505Z,97398.21
2018-07-05T01:28:29.117Z,97394.34
2018-07-05T01:29:00.711Z,97395.95
2018-07-05T01:29:32.297Z,97392.48
2018-07-05T01:30:03.882Z,97397.14
2018-07-05T01:30:35.490Z,97395.80
2018-07-05T01:31:07.078Z,97398.75
2018-07-05T01:31:38.739Z,97400.80
2018-07-05T01:32:10.312Z,97396.95
2018-07-05T01:32:41.894Z,97396.86
2018-07-05T01:33:13.506Z,97391.72
2018-07-05T01:33:45.109Z,97393.77
2018-07-05T01:34:16.696Z,97392.42
2018-07-05T01:34:48.287Z,97402.63
2018-07-05T01:35:19.880Z,97402.18
2018-07-05T01:35:51.489Z,97401.70
2018-07-05T01:36:23.093Z,97395.73
2018-07-05T01:36:54.692Z,97394.86
2018-07-05T01:37:26.268Z,97401.67
2018-07-05T01:37:57.845Z,97393.98
2018-07-05T01:38:29.430Z,97398.18
2018-07-05T01:39:01.033Z,97396.95
2018-07-05T01:39:32.637Z,97388.35
2018-07-05T01:40:04.236Z,97399.88
2018-07-05T01:40:35.841Z,97392.61
2018-07-05T01:41:07.475Z,97393.03
2018-07-05T01:41:39.078Z,97403.63
2018-07-05T01:42:10.672Z,97389.98
2018-07-05T01:42:42.250Z,97391.67
2018-07-05T01:43:13.857Z,97392.52
2018-07-05T01:43:45.461Z,97391.66
2018-07-05T01:44:17.065Z,97391.66
2018-07-05T01:44:48.650Z,97382.72
2018-07-05T01:45:20.254Z,97391.22
2018-07-05T01:45:51.861Z,97387.33
2018-07-05T01:46:23.441Z,97389.45
2018-07-05T01:46:55.097Z,97389.83
2018-07-05T01:47:26.679Z,97393.20
2018-07-05T01:47:58.272Z,97394.03
2018-07-05T01:48:29.927Z,97397.44
2018-07-05T01:49:01.539Z,97392.73
2018-07-05T01:49:33.122Z,97395.28
2018-07-05T01:50:04.729Z,97392.25
2018-07-05T01:50:36.318Z,97394.78
2018-07-05T01:51:07.907Z,97392.63
2018-07-05T01:51:39.493Z,97392.63
2018-07-05T01:52:11.088Z,97397.67
2018-07-05T01:52:42.693Z,97397.23
2018-07-05T01:53:14.290Z,97392.55
2018-07-05T01:53:45.882Z,97398.94
2018-07-05T01:54:17.476Z,97398.49
2018-07-05T01:54:49.083Z,97398.94
2018-07-05T01:55:20.694Z,97396.80
2018-07-05T01:55:52.299Z,97394.25
2018-07-05T01:56:23.905Z,97395.94
2018-07-05T01:56:55.490Z,97406.59
2018-07-05T01:57:27.084Z,97396.38
2018-07-05T01:57:58.676Z,97400.19
2018-07-05T01:58:30.258Z,97398.49
2018-07-05T01:59:01.829Z,97401.89
2018-07-05T01:59:34.817Z,97396.72
2018-07-05T02:00:06.421Z,97399.72
2018-07-05T02:00:37.992Z,97399.33
2018-07-05T02:01:09.574Z,97401.84
2018-07-05T02:01:41.172Z,97403.96
2018-07-05T02:02:12.818Z,97399.70
2018-07-05T02:02:44.421Z,97402.68
2018-07-05T02:03:15.996Z,97406.09
2018-07-05T02:03:47.577Z,97406.52
2018-07-05T02:04:19.167Z,97406.08
2018-07-05T02:04:50.763Z,97401.80
2018-07-05T02:05:22.336Z,97400.52
2018-07-05T02:05:53.943Z,97400.96
2018-07-05T02:06:25.548Z,97404.78
2018-07-05T02:06:57.139Z,97406.45
2018-07-05T02:07:28.775Z,97403.03
2018-07-05T02:08:00.362Z,97400.03
2018-07-05T02:08:31.934Z,97403.45
2018-07-05T02:09:03.541Z,97401.71
2018-07-05T02:09:35.140Z,97400.02
2018-07-05T02:10:06.760Z,97404.27
2018-07-05T02:10:38.366Z,97398.71
2018-07-05T02:11:09.964Z,97398.71
2018-07-05T02:11:41.574Z,97402.08
2018-07-05T02:12:13.181Z,97399.94
2018-07-05T02:12:44.785Z,97403.78
2018-07-05T02:13:16.389Z,97397.38
2018-07-05T02:13:47.983Z,97399.98
2018-07-05T02:14:19.563Z,97399.06
2018-07-05T02:14:51.153Z,97397.36
2018-07-05T02:15:22.789Z,97402.91
2018-07-05T02:15:54.389Z,97395.22
2018-07-05T02:16:25.997Z,97395.64
2018-07-05T02:16:57.610Z,97392.24
2018-07-05T02:17:29.198Z,97397.36
2018-07-05T02:18:00.764Z,97396.08
2018-07-05T02:18:32.341Z,97398.64
2018-07-05T02:19:03.945Z,97401.20
2018-07-05T02:19:35.530Z,97399.06
2018-07-05T02:20:07.138Z,97399.48
2018-07-05T02:20:38.732Z,97396.48
2018-07-05T02:21:10.338Z,97397.77
2018-07-05T02:21:41.936Z,97398.18
2018-07-05T02:22:13.522Z,97398.20
2018-07-05T02:22:45.132Z,97399.06
2018-07-05T02:23:16.745Z,97401.18
2018-07-05T02:23:48.370Z,97393.92
2018-07-05T02:24:19.936Z,97397.34
2018-07-05T02:24:51.521Z,97400.32
2018-07-05T02:25:23.111Z,97391.36
2018-07-05T02:25:54.697Z,97399.46
2018-07-05T02:26:26.278Z,97403.25
2018-07-05T02:26:57.867Z,97401.97
2018-07-05T02:27:29.493Z,97402.83
2018-07-05T02:28:01.073Z,97407.14
2018-07-05T02:28:32.681Z,97398.59
2018-07-05T02:29:04.301Z,97401.97
2018-07-05T02:29:35.901Z,97401.97
2018-07-05T02:30:07.480Z,97404.95
2018-07-05T02:30:39.063Z,97403.67
2018-07-05T02:31:10.647Z,97403.64
2018-07-05T02:31:42.254Z,97407.48
2018-07-05T02:32:13.830Z,97404.51
2018-07-05T02:32:45.477Z,97404.51
2018-07-05T02:33:17.082Z,97410.92
2018-07-05T02:33:48.673Z,97409.63
2018-07-05T02:34:20.268Z,97407.91
2018-07-05T02:34:51.850Z,97409.19
2018-07-05T02:35:23.457Z,97408.33
2018-07-05T02:35:55.066Z,97402.44
2018-07-05T02:36:26.705Z,97404.52
2018-07-05T02:36:58.299Z,97412.16
2018-07-05T02:37:29.883Z,97412.11
2018-07-05T02:38:01.470Z,97411.33
2018-07-05T02:38:33.100Z,97404.48
2018-07-05T02:39:04.689Z,97407.47
2018-07-05T02:39:36.313Z,97404.91
2018-07-05T02:40:07.903Z,97402.77
2018-07-05T02:40:39.486Z,97408.25
2018-07-05T02:41:11.052Z,97401.77
2018-07-05T02:41:42.648Z,97404.92
2018-07-05T02:42:14.256Z,97398.58
2018-07-05T02:42:45.842Z,97396.16
2018-07-05T02:43:17.432Z,97399.98
2018-07-05T02:43:49.018Z,97397.48
2018-07-05T02:44:20.626Z,97393.04
2018-07-05T02:44:52.274Z,97400.19
2018-07-05T02:45:23.882Z,97396.90
2018-07-05T02:45:55.493Z,97399.52
2018-07-05T02:46:27.105Z,97396.21
2018-07-05T02:46:58.676Z,97400.17
2018-07-05T02:47:30.261Z,97402.36
2018-07-05T02:48:01.842Z,97397.77
2018-07-05T02:48:33.441Z,97399.53
2018-07-05T02:49:05.097Z,97400.47
2018-07-05T02:49:36.682Z,97406.94
2018-07-05T02:50:08.280Z,97406.11
2018-07-05T02:50:39.866Z,97401.48
2018-07-05T02:51:11.450Z,97402.25
2018-07-05T02:51:43.061Z,97403.00
2018-07-05T02:52:14.674Z,97397.72
2018-07-05T02:52:46.262Z,97398.52
2018-07-05T02:53:17.842Z,97396.19
2018-07-05T02:53:49.426Z,97404.14
2018-07-05T02:54:21.085Z,97404.00
2018-07-05T02:54:52.670Z,97403.59
2018-07-05T02:55:24.273Z,97405.77
2018-07-05T02:55:55.870Z,97400.73
2018-07-05T02:56:27.462Z,97408.55
2018-07-05T02:56:59.049Z,97404.39
2018-07-05T02:57:30.629Z,97411.32
2018-07-05T02:58:02.210Z,97411.43
2018-07-05T02:58:33.808Z,97410.66
2018-07-05T02:59:05.389Z,97409.45
2018-07-05T02:59:37.009Z,97407.39
2018-07-05T03:00:08.619Z,97411.23
2018-07-05T03:00:40.216Z,97409.16
2018-07-05T03:01:11.813Z,97413.02
2018-07-05T03:01:43.398Z,97412.53
2018-07-05T03:02:14.988Z,97404.86
2018-07-05T03:02:46.580Z,97406.64
2018-07-05T03:03:18.199Z,97410.92
2018-07-05T03:03:49.820Z,97407.59
2018-07-05T03:04:21.456Z,97414.92
2018-07-05T03:04:53.061Z,97408.11
2018-07-05T03:05:24.649Z,97414.55
2018-07-05T03:05:56.230Z,97411.20
2018-07-05T03:06:27.829Z,97412.05
2018-07-05T03:06:59.437Z,97406.96
2018-07-05T03:07:31.056Z,97412.52
2018-07-05T03:08:02.661Z,97412.15
2018-07-05T03:08:34.256Z,97415.14
2018-07-05T03:09:05.859Z,97416.00
2018-07-05T03:09:37.462Z,97413.47
2018-07-05T03:10:09.108Z,97407.98
2018-07-05T03:10:40.683Z,97402.23
2018-07-05T03:11:12.266Z,97415.25
2018-07-05T03:11:43.842Z,97411.00
2018-07-05T03:12:15.445Z,97415.69
2018-07-05T03:12:47.077Z,97420.81
2018-07-05T03:13:18.661Z,97419.97
2018-07-05T03:13:50.232Z,97415.75
2018-07-05T03:14:21.824Z,97414.91
2018-07-05T03:14:53.423Z,97415.77
2018-07-05T03:15:25.010Z,97422.62
2018-07-05T03:15:56.613Z,97424.32
2018-07-05T03:16:28.217Z,97420.92
2018-07-05T03:16:59.808Z,97423.04
2018-07-05T03:17:31.413Z,97421.34
2018-07-05T03:18:03.040Z,97424.76
2018-07-05T03:18:34.625Z,97423.11
2018-07-05T03:19:06.202Z,97425.25
2018-07-05T03:19:37.773Z,97423.97
2018-07-05T03:20:09.378Z,97426.53
2018-07-05T03:20:41.005Z,97424.41
2018-07-05T03:21:12.606Z,97425.25
2018-07-05T03:21:44.200Z,97425.27
2018-07-05T03:22:15.785Z,97427.83
2018-07-05T03:22:47.388Z,97426.55
2018-07-05T03:23:18.973Z,97422.73
2018-07-05T03:23:50.565Z,97421.50
2018-07-05T03:24:22.160Z,97419.78
2018-07-05T03:24:53.765Z,97418.54
2018-07-05T03:25:25.379Z,97429.17
2018-07-05T03:25:56.989Z,97423.64
2018-07-05T03:26:28.592Z,97415.96
2018-07-05T03:27:00.232Z,97419.80
2018-07-05T03:27:31.846Z,97417.66
2018-07-05T03:28:03.454Z,97418.09
2018-07-05T03:28:35.024Z,97422.80
2018-07-05T03:29:06.605Z,97419.40
2018-07-05T03:29:38.231Z,97419.82
2018-07-05T03:30:09.818Z,97421.54
2018-07-05T03:30:41.429Z,97414.30
2018-07-05T03:31:13.038Z,97427.56
2018-07-05T03:31:44.612Z,97419.42
2018-07-05T03:32:16.257Z,97420.70
2018-07-05T03:32:47.845Z,97417.75
2018-07-05T03:33:19.443Z,97421.61
2018-07-05T03:33:51.012Z,97420.77
2018-07-05T03:34:22.603Z,97414.79
2018-07-05T03:34:54.186Z,97419.47
2018-07-05T03:35:25.774Z,97416.49
2018-07-05T03:35:57.429Z,97413.52
2018-07-05T03:36:29.041Z,97414.38
2018-07-05T03:37:00.620Z,97411.83
2018-07-05T03:37:32.188Z,97415.67
2018-07-05T03:38:03.765Z,97412.25
2018-07-05T03:38:35.373Z,97414.38
2018-07-05T03:39:06.967Z,97413.53
2018-07-05T03:39:38.554Z,97408.05
2018-07-05T03:40:10.162Z,97405.92
2018-07-05T03:40:41.776Z,97406.34
2018-07-05T03:41:13.358Z,97410.19
2018-07-05T03:41:44.937Z,97409.75
2018-07-05T03:42:16.537Z,97408.86
2018-07-05T03:42:48.141Z,97405.48
2018-07-05T03:43:19.760Z,97408.00
2018-07-05T03:43:51.362Z,97403.79
2018-07-05T03:44:22.946Z,97406.34
2018-07-05T03:44:54.551Z,97405.91
2018-07-05T03:45:26.124Z,97403.39
2018-07-05T03:45:57.729Z,97414.44
2018-07-05T03:46:29.300Z,97407.20
2018-07-05T03:47:00.925Z,97404.64
2018-07-05T03:47:32.510Z,97407.63
2018-07-05T03:48:04.092Z,97405.06
2018-07-05T03:48:35.733Z,97405.06
2018-07-05T03:49:07.326Z,97405.06
2018-07-05T03:49:38.906Z,97410.19
2018-07-05T03:50:10.500Z,97397.81
2018-07-05T03:50:42.096Z,97401.66
2018-07-05T03:51:13.668Z,97404.20
2018-07-05T03:51:45.273Z,97402.09
2018-07-05T03:52:16.848Z,97401.23
2018-07-05T03:52:48.449Z,97398.25
2018-07-05T03:53:20.038Z,97394.39
2018-07-05T03:53:51.648Z,97395.25
2018-07-05T03:54:23.250Z,97400.32
2018-07-05T03:54:54.842Z,97398.62
2018-07-05T03:55:26.425Z,97395.20
2018-07-05T03:55:57.996Z,97397.77
2018-07-05T03:56:29.573Z,97396.06
2018-07-05T03:57:01.217Z,97400.73
2018-07-05T03:57:32.812Z,97398.62
2018-07-05T03:58:04.417Z,97397.34
2018-07-05T03:58:36.016Z,97397.32
2018-07-05T03:59:07.591Z,97395.20
2018-07-05T03:59:39.177Z,97396.53
2018-07-05T04:00:10.780Z,97396.48
2018-07-05T04:00:42.389Z,97392.20
2018-07-05T04:01:13.988Z,97398.60
2018-07-05T04:01:45.583Z,97392.63
2018-07-05T04:02:17.220Z,97394.34
2018-07-05T04:02:48.801Z,97388.00
2018-07-05T04:03:20.381Z,97391.34
2018-07-05T04:03:51.972Z,97396.45
2018-07-05T04:04:23.560Z,97397.30
2018-07-05T04:04:55.174Z,97398.52
2018-07-05T04:05:26.787Z,97392.55
2018-07-05T04:05:58.464Z,97396.35
2018-07-05T04:06:30.055Z,97397.64
2018-07-05T04:07:01.713Z,97398.05
2018-07-05T04:07:33.316Z,97397.61
2018-07-05T04:08:04.904Z,97401.89
2018-07-05T04:08:36.525Z,97400.10
2018-07-05T04:09:08.106Z,97403.52
2018-07-05T04:09:39.707Z,97392.08
2018-07-05T04:10:11.312Z,97401.41
2018-07-05T04:10:42.884Z,97402.66
2018-07-05T04:11:14.466Z,97403.08
2018-07-05T04:11:46.050Z,97404.36
2018-07-05T04:12:17.635Z,97400.94
2018-07-05T04:12:49.238Z,97399.66
2018-07-05T04:13:20.832Z,97397.55
2018-07-05T04:13:52.481Z,97403.94
2018-07-05T04:14:24.061Z,97398.91
2018-07-05T04:14:55.675Z,97399.27
2018-07-05T04:15:27.271Z,97403.08
2018-07-05T04:15:58.854Z,97403.08
2018-07-05T04:16:30.466Z,97400.55
2018-07-05T04:17:02.050Z,97407.76
2018-07-05T04:17:33.620Z,97400.10
2018-07-05T04:18:05.208Z,97399.27
2018-07-05T04:18:36.803Z,97396.77
2018-07-05T04:19:08.429Z,97402.73
2018-07-05T04:19:40.015Z,97401.45
2018-07-05T04:20:11.617Z,97395.08
2018-07-05T04:20:43.201Z,97395.52
2018-07-05T04:21:14.805Z,97392.52
2018-07-05T04:21:46.409Z,97397.21
2018-07-05T04:22:17.998Z,97393.78
2018-07-05T04:22:49.622Z,97382.20
2018-07-05T04:23:21.255Z,97385.06
2018-07-05T04:23:52.865Z,97392.02
2018-07-05T04:24:24.489Z,97383.58
2018-07-05T04:24:56.110Z,97389.38
2018-07-05T04:25:27.677Z,97393.17
2018-07-05T04:25:59.257Z,97391.85
2018-07-05T04:26:30.841Z,97392.20
2018-07-05T04:27:02.426Z,97387.93
2018-07-05T04:27:34.010Z,97394.30
2018-07-05T04:28:05.589Z,97397.48
2018-07-05T04:28:37.194Z,97395.88
2018-07-05T04:29:08.778Z,97391.52
2018-07-05T04:29:40.401Z,97392.91
2018-07-05T04:30:12.004Z,97395.26
2018-07-05T04:30:43.613Z,97397.92
2018-07-05T04:31:15.188Z,97395.55
2018-07-05T04:31:46.793Z,97393.95
2018-07-05T04:32:18.406Z,97393.58
2018-07-05T04:32:50.017Z,97397.09
2018-07-05T04:33:21.641Z,97394.87
2018-07-05T04:33:53.246Z,97391.75
2018-07-05T04:34:24.843Z,97384.48
2018-07-05T04:34:56.442Z,97388.98
2018-07-05T04:35:28.036Z,97390.16
2018-07-05T04:35:59.651Z,97391.19
2018-07-05T04:36:31.301Z,97385.86
2018-07-05T04:37:03.038Z,97384.32
2018-07-05T04:37:34.626Z,97387.80
2018-07-05T04:38:06.200Z,97386.61
2018-07-05T04:38:37.768Z,97388.91
2018-07-05T04:39:09.344Z,97378.41
2018-07-05T04:39:40.946Z,97390.16
2018-07-05T04:40:12.533Z,97385.20
2018-07-05T04:40:44.158Z,97375.95
2018-07-05T04:41:15.738Z,97380.59
2018-07-05T04:41:47.345Z,97380.63
2018-07-05T04:42:18.927Z,97380.28
2018-07-05T04:42:50.534Z,97377.52
2018-07-05T04:43:22.104Z,97383.88
2018-07-05T04:43:53.761Z,97383.50
2018-07-05T04:44:25.332Z,97381.06
2018-07-05T04:44:56.944Z,97382.03
2018-07-05T04:45:28.515Z,97383.70
2018-07-05T04:46:00.102Z,97384.15
2018-07-05T04:46:31.821Z,97384.88
2018-07-05T04:47:03.469Z,97385.89
2018-07-05T04:47:35.073Z,97385.35
2018-07-05T04:48:06.645Z,97386.86
2018-07-05T04:48:38.249Z,97389.79
2018-07-05T04:49:09.853Z,97384.73
2018-07-05T04:49:41.501Z,97383.62
2018-07-05T04:50:13.096Z,97381.59
2018-07-05T04:50:44.691Z,97379.44
2018-07-05T04:51:16.277Z,97380.82
2018-07-05T04:51:47.885Z,97382.50
2018-07-05T04:52:19.457Z,97385.20
2018-07-05T04:52:51.069Z,97378.92
2018-07-05T04:53:22.653Z,97382.71
2018-07-05T04:53:54.237Z,97379.44
2018-07-05T04:54:25.889Z,97383.70
2018-07-05T04:54:57.501Z,97383.23
2018-07-05T04:55:29.083Z,97388.59
2018-07-05T04:56:00.701Z,97392.13
2018-07-05T04:56:32.306Z,97384.77
2018-07-05T04:57:03.894Z,97394.27
2018-07-05T04:57:35.493Z,97393.63
2018-07-05T04:58:07.099Z,97391.38
2018-07-05T04:58:38.681Z,97391.47
2018-07-05T04:59:10.284Z,97394.02
2018-07-05T04:59:41.909Z,97389.28
2018-07-05T05:00:13.500Z,97393.23
2018-07-05T05:00:45.105Z,97383.23
2018-07-05T05:01:16.718Z,97390.21
2018-07-05T05:01:48.312Z,97390.25
2018-07-05T05:02:19.901Z,97388.16
2018-07-05T05:02:51.510Z,97392.77
2018-07-05T05:03:23.122Z,97400.11
2018-07-05T05:03:54.692Z,97399.16
2018-07-05T05:04:26.341Z,97399.33
2018-07-05T05:04:57.908Z,97393.89
2018-07-05T05:05:29.514Z,97390.11
2018-07-05T05:06:01.105Z,97398.05
2018-07-05T05:06:32.709Z,97395.66
2018-07-05T05:07:04.287Z,97398.94
2018-07-05T05:07:35.865Z,97398.95
2018-07-05T05:08:07.465Z,97402.14
2018-07-05T05:08:39.111Z,97400.86
2018-07-05T05:09:10.693Z,97402.22
2018-07-05T05:09:42.305Z,97399.81
2018-07-05T05:10:13.893Z,97396.16
2018-07-05T05:10:45.497Z,97405.34
2018-07-05T05:11:17.106Z,97392.77
2018-07-05T05:11:48.684Z,97398.94
2018-07-05T05:12:20.251Z,97394.42
2018-07-05T05:12:51.854Z,97400.12
2018-07-05T05:13:23.438Z,97399.00
2018-07-05T05:13:55.090Z,97397.48
2018-07-05T05:14:26.668Z,97397.75
2018-07-05T05:14:58.294Z,97397.06
2018-07-05T05:15:29.867Z,97397.62
2018-07-05T05:16:01.454Z,97393.03
2018-07-05T05:16:33.057Z,97392.73
2018-07-05T05:17:04.636Z,97390.39
2018-07-05T05:17:36.242Z,97391.89
2018-07-05T05:18:07.846Z,97389.61
2018-07-05T05:18:39.460Z,97387.69
2018-07-05T05:19:11.028Z,97389.98
2018-07-05T05:19:42.609Z,97393.59
2018-07-05T05:20:14.180Z,97392.91
2018-07-05T05:20:45.776Z,97390.92
2018-07-05T05:21:17.375Z,97392.70
2018-07-05T05:21:48.953Z,97392.81
2018-07-05T05:22:20.609Z,97395.05
2018-07-05T05:22:52.190Z,97390.88
2018-07-05T05:23:23.771Z,97391.39
2018-07-05T05:23:55.373Z,97388.53
2018-07-05T05:24:26.987Z,97396.22
2018-07-05T05:24:58.584Z,97395.88
2018-07-05T05:25:30.164Z,97391.64
2018-07-05T05:26:01.746Z,97393.41
2018-07-05T05:26:33.334Z,97396.84
2018-07-05T05:27:04.909Z,97392.66
2018-07-05T05:27:36.553Z,97394.38
2018-07-05T05:28:08.162Z,97391.45
2018-07-05T05:28:39.736Z,97392.31
2018-07-05T05:29:11.332Z,97395.31
2018-07-05T05:29:42.941Z,97392.33
2018-07-05T05:30:14.526Z,97392.84
2018-07-05T05:30:46.105Z,97394.07
2018-07-05T05:31:17.709Z,97397.55
2018-07-05T05:31:49.369Z,97394.14
2018-07-05T05:32:20.949Z,97391.16
2018-07-05T05:32:52.520Z,97395.00
2018-07-05T05:33:24.091Z,97392.47
2018-07-05T05:33:55.680Z,97392.94
2018-07-05T05:34:27.285Z,97390.77
2018-07-05T05:34:58.864Z,97396.39
2018-07-05T05:35:30.455Z,97397.22
2018-07-05T05:36:02.066Z,97395.09
2018-07-05T05:36:33.662Z,97395.95
2018-07-05T05:37:05.299Z,97399.38
2018-07-05T05:37:36.889Z,97398.09
2018-07-05T05:38:08.469Z,97398.09
2018-07-05T05:38:40.052Z,97403.66
2018-07-05T05:39:11.635Z,97398.97
2018-07-05T05:39:43.218Z,97403.66
2018-07-05T05:40:14.807Z,97404.56
2018-07-05T05:40:46.461Z,97403.28
2018-07-05T05:41:18.111Z,97405.00
2018-07-05T05:41:49.693Z,97403.30
2018-07-05T05:42:21.263Z,97405.44
2018-07-05T05:42:52.836Z,97408.42
2018-07-05T05:43:24.418Z,97405.04
2018-07-05T05:43:56.026Z,97403.34
2018-07-05T05:44:27.669Z,97405.88
2018-07-05T05:44:59.282Z,97403.34
2018-07-05T05:45:30.869Z,97398.64
2018-07-05T05:46:02.518Z,97394.86
2018-07-05T05:46:34.130Z,97409.34
2018-07-05T05:47:05.717Z,97396.55
2018-07-05T05:47:37.377Z,97401.25
2018-07-05T05:48:08.991Z,97401.67
2018-07-05T05:48:40.583Z,97402.11
2018-07-05T05:49:12.170Z,97402.13
2018-07-05T05:49:43.753Z,97402.55
2018-07-05T05:50:15.321Z,97402.13
2018-07-05T05:50:46.942Z,97401.27
2018-07-05T05:51:18.570Z,97399.58
2018-07-05T05:51:50.140Z,97399.58
2018-07-05T05:52:21.745Z,97406.41
2018-07-05T05:52:53.329Z,97398.73
2018-07-05T05:53:24.919Z,97394.89
2018-07-05T05:53:57.543Z,97402.63
2018-07-05T05:54:29.158Z,97402.20
2018-07-05T05:55:00.745Z,97400.06
2018-07-05T05:55:32.350Z,97402.63
2018-07-05T05:56:03.928Z,97403.48
2018-07-05T05:56:35.573Z,97404.76
2018-07-05T05:57:07.150Z,97408.13
2018-07-05T05:57:38.752Z,97403.08
2018-07-05T05:58:10.338Z,97408.62
2018-07-05T05:58:41.937Z,97406.90
2018-07-05T05:59:13.512Z,97407.34
2018-07-05T05:59:45.100Z,97410.32
2018-07-05T06:00:16.671Z,97405.22
2018-07-05T06:00:48.274Z,97406.52
2018-07-05T06:01:19.857Z,97402.23
2018-07-05T06:01:51.545Z,97405.22
2018-07-05T06:02:23.105Z,97404.80
2018-07-05T06:02:54.710Z,97401.82
2018-07-05T06:03:26.317Z,97405.22
2018-07-05T06:03:57.905Z,97400.59
2018-07-05T06:04:29.505Z,97405.23
2018-07-05T06:05:01.089Z,97405.30
2018-07-05T06:05:32.727Z,97404.43
2018-07-05T06:06:04.335Z,97406.52
2018-07-05T06:06:35.932Z,97405.71
2018-07-05T06:07:07.520Z,97410.77
2018-07-05T06:07:39.121Z,97404.82
2018-07-05T06:08:10.828Z,97408.66
2018-07-05T06:08:42.328Z,97405.71
2018-07-05T06:09:13.905Z,97409.55
2018-07-05T06:09:45.509Z,97406.09
2018-07-05T06:10:17.104Z,97407.38
2018-07-05T06:10:48.713Z,97406.98